createdAt,value
2022-10-26T00:00:18.328Z,0.00
2022-10-26T00:00:57.316Z,0.00
2022-10-26T00:02:18.403Z,0.00
2022-10-26T00:02:57.227Z,0.00
2022-10-26T00:03:57.195Z,0.00
2022-10-26T00:05:18.172Z,0.00
2022-10-26T00:05:57.128Z,0.00
2022-10-26T00:07:18.091Z,0.00
2022-10-26T00:07:57.059Z,0.00
2022-10-26T00:08:57.025Z,0.00
2022-10-26T00:10:17.984Z,0.00
2022-10-26T00:10:56.954Z,0.00
2022-10-26T00:12:17.916Z,0.00
2022-10-26T00:12:56.893Z,0.00
2022-10-26T00:13:56.852Z,0.00
2022-10-26T00:15:17.819Z,0.00
2022-10-26T00:15:56.860Z,0.00
2022-10-26T00:17:17.754Z,0.00
2022-10-26T00:17:56.729Z,0.00
2022-10-26T00:18:56.681Z,0.00
2022-10-26T00:20:17.642Z,0.00
2022-10-26T00:20:56.619Z,0.00
2022-10-26T00:22:17.576Z,0.00
2022-10-26T00:22:56.548Z,0.00
2022-10-26T00:23:56.510Z,0.00
2022-10-26T00:25:17.538Z,0.00
2022-10-26T00:25:56.450Z,0.00
2022-10-26T00:27:17.404Z,0.00
2022-10-26T00:27:56.379Z,0.00
2022-10-26T00:28:56.344Z,0.00
2022-10-26T00:30:17.310Z,0.00
2022-10-26T00:30:56.279Z,0.00
2022-10-26T00:32:17.236Z,0.00
2022-10-26T00:32:56.209Z,0.00
2022-10-26T00:33:56.181Z,0.00
2022-10-26T00:35:23.090Z,0.00
2022-10-26T00:35:56.103Z,0.00
2022-10-26T00:37:17.072Z,0.00
2022-10-26T00:37:56.089Z,0.00
2022-10-26T00:38:56.004Z,0.00
2022-10-26T00:40:16.985Z,0.00
2022-10-26T00:42:16.915Z,0.00
2022-10-26T00:42:55.907Z,0.00
2022-10-26T00:43:55.913Z,0.00
2022-10-26T00:45:16.798Z,0.00
2022-10-26T00:45:55.767Z,0.00
2022-10-26T00:47:16.732Z,0.00
2022-10-26T00:47:55.731Z,0.00
2022-10-26T00:48:55.670Z,0.00
2022-10-26T00:50:16.624Z,0.00
2022-10-26T00:50:55.594Z,0.00
2022-10-26T00:52:16.570Z,0.00
2022-10-26T00:52:55.526Z,0.00
2022-10-26T00:53:55.498Z,0.00
2022-10-26T00:55:16.475Z,0.00
2022-10-26T00:55:55.431Z,0.00
2022-10-26T00:57:16.393Z,0.00
2022-10-26T00:57:55.365Z,0.00
2022-10-26T00:58:55.358Z,0.00
2022-10-26T01:00:16.303Z,0.00
2022-10-26T01:00:55.259Z,0.00
2022-10-26T01:02:16.223Z,0.00
2022-10-26T01:02:55.189Z,0.00
2022-10-26T01:03:55.199Z,0.00
2022-10-26T01:05:16.127Z,0.00
2022-10-26T01:05:55.089Z,0.00
2022-10-26T01:07:16.087Z,0.00
2022-10-26T01:07:55.019Z,0.00
2022-10-26T01:08:54.989Z,0.00
2022-10-26T01:10:15.974Z,0.00
2022-10-26T01:10:54.920Z,0.00
2022-10-26T01:12:15.892Z,0.00
2022-10-26T01:12:54.862Z,0.00
2022-10-26T01:13:54.816Z,0.00
2022-10-26T01:15:15.780Z,0.00
2022-10-26T01:15:54.805Z,0.00
2022-10-26T01:17:15.732Z,0.00
2022-10-26T01:17:54.680Z,0.00
2022-10-26T01:18:54.652Z,0.00
2022-10-26T01:20:15.611Z,0.00
2022-10-26T01:20:54.583Z,0.00
2022-10-26T01:22:15.547Z,0.00
2022-10-26T01:22:54.510Z,0.00
2022-10-26T01:23:54.483Z,0.00
2022-10-26T01:25:15.466Z,0.00
2022-10-26T01:25:54.413Z,0.00
2022-10-26T01:27:15.372Z,0.00
2022-10-26T01:27:54.347Z,0.00
2022-10-26T01:28:54.317Z,0.00
2022-10-26T01:30:15.279Z,0.00
2022-10-26T01:30:54.241Z,0.00
2022-10-26T01:32:15.246Z,0.00
2022-10-26T01:32:54.175Z,0.00
2022-10-26T01:33:54.143Z,0.00
2022-10-26T01:35:15.108Z,0.00
2022-10-26T01:35:54.075Z,0.00
2022-10-26T01:37:15.035Z,0.00
2022-10-26T01:37:54.006Z,0.00
2022-10-26T01:38:53.972Z,0.00
2022-10-26T01:40:14.938Z,0.00
2022-10-26T01:40:53.903Z,0.00
2022-10-26T01:42:14.870Z,0.00
2022-10-26T01:42:53.836Z,0.00
2022-10-26T01:43:53.805Z,0.00
2022-10-26T01:45:14.806Z,0.00
2022-10-26T01:45:53.760Z,0.00
2022-10-26T01:47:14.702Z,0.00
2022-10-26T01:47:53.716Z,0.00
2022-10-26T01:48:53.639Z,0.00
2022-10-26T01:50:14.600Z,0.00
2022-10-26T01:50:53.571Z,0.00
2022-10-26T01:52:14.549Z,0.00
2022-10-26T01:52:53.505Z,0.00
2022-10-26T01:53:53.467Z,0.00
2022-10-26T01:55:14.456Z,0.00
2022-10-26T01:55:53.404Z,0.00
2022-10-26T01:57:14.364Z,0.00
2022-10-26T01:57:53.331Z,0.00
2022-10-26T01:58:53.300Z,0.00
2022-10-26T02:00:14.262Z,0.00
2022-10-26T02:00:53.239Z,0.00
2022-10-26T02:02:14.227Z,0.00
2022-10-26T02:02:53.161Z,0.00
2022-10-26T02:03:53.174Z,0.00
2022-10-26T02:05:14.090Z,0.00
2022-10-26T02:05:53.061Z,0.00
2022-10-26T02:07:15.920Z,0.00
2022-10-26T02:07:53.017Z,0.00
2022-10-26T02:08:52.960Z,0.00
2022-10-26T02:10:13.921Z,0.00
2022-10-26T02:10:52.892Z,0.00
2022-10-26T02:12:13.857Z,0.00
2022-10-26T02:12:52.828Z,0.00
2022-10-26T02:13:52.791Z,0.00
2022-10-26T02:15:13.845Z,0.00
2022-10-26T02:15:52.722Z,0.00
2022-10-26T02:17:13.694Z,0.00
2022-10-26T02:17:52.658Z,0.00
2022-10-26T02:18:52.617Z,0.00
2022-10-26T02:20:13.588Z,0.00
2022-10-26T02:20:52.554Z,0.00
2022-10-26T02:22:13.570Z,0.00
2022-10-26T02:22:52.486Z,0.00
2022-10-26T02:23:52.477Z,0.00
2022-10-26T02:25:13.425Z,0.00
2022-10-26T02:25:52.386Z,0.00
2022-10-26T02:27:13.352Z,0.00
2022-10-26T02:27:52.323Z,0.00
2022-10-26T02:28:52.286Z,0.00
2022-10-26T02:30:13.247Z,0.00
2022-10-26T02:30:52.219Z,0.00
2022-10-26T02:32:13.189Z,0.00
2022-10-26T02:32:52.167Z,0.00
2022-10-26T02:33:52.132Z,0.00
2022-10-26T02:35:13.087Z,0.00
2022-10-26T02:35:52.062Z,0.00
2022-10-26T02:37:13.012Z,0.00
2022-10-26T02:37:52.109Z,0.00
2022-10-26T02:38:51.949Z,0.00
2022-10-26T02:40:12.914Z,0.00
2022-10-26T02:40:51.956Z,0.00
2022-10-26T02:42:12.854Z,0.00
2022-10-26T02:42:51.805Z,0.00
2022-10-26T02:43:51.783Z,0.00
2022-10-26T02:45:12.746Z,0.00
2022-10-26T02:45:51.713Z,0.00
2022-10-26T02:47:12.712Z,0.00
2022-10-26T02:47:51.968Z,0.00
2022-10-26T02:48:51.619Z,0.00
2022-10-26T02:50:12.577Z,0.00
2022-10-26T02:50:51.545Z,0.00
2022-10-26T02:52:12.508Z,0.00
2022-10-26T02:52:51.764Z,0.00
2022-10-26T02:53:51.444Z,0.00
2022-10-26T02:55:12.406Z,0.00
2022-10-26T02:55:51.401Z,0.00
2022-10-26T02:57:12.340Z,0.00
2022-10-26T02:57:51.313Z,0.00
2022-10-26T02:58:51.275Z,0.00
2022-10-26T03:00:12.237Z,0.00
2022-10-26T03:00:51.227Z,0.00
2022-10-26T03:02:12.168Z,0.00
2022-10-26T03:02:51.481Z,0.00
2022-10-26T03:03:51.222Z,0.00
2022-10-26T03:05:12.077Z,0.00
2022-10-26T03:05:51.041Z,0.00
2022-10-26T03:07:12.018Z,0.00
2022-10-26T03:07:50.975Z,0.00
2022-10-26T03:08:50.940Z,0.00
2022-10-26T03:10:11.923Z,0.00
2022-10-26T03:10:50.873Z,0.00
2022-10-26T03:12:11.836Z,0.00
2022-10-26T03:12:51.259Z,0.00
2022-10-26T03:13:50.777Z,0.00
2022-10-26T03:15:11.735Z,0.00
2022-10-26T03:15:50.714Z,0.00
2022-10-26T03:17:11.673Z,0.00
2022-10-26T03:17:50.934Z,0.00
2022-10-26T03:18:50.605Z,0.00
2022-10-26T03:20:11.578Z,0.00
2022-10-26T03:20:50.535Z,0.00
2022-10-26T03:22:11.574Z,0.00
2022-10-26T03:22:50.467Z,0.00
2022-10-26T03:23:50.443Z,0.00
2022-10-26T03:25:11.422Z,0.00
2022-10-26T03:25:50.372Z,0.00
2022-10-26T03:27:11.332Z,0.00
2022-10-26T03:27:50.753Z,0.00
2022-10-26T03:28:50.277Z,0.00
2022-10-26T03:30:11.235Z,0.00
2022-10-26T03:30:50.205Z,0.00
2022-10-26T03:32:11.170Z,0.00
2022-10-26T03:32:50.172Z,0.00
2022-10-26T03:33:50.110Z,0.00
2022-10-26T03:35:11.064Z,0.00
2022-10-26T03:35:50.037Z,0.00
2022-10-26T03:37:10.998Z,0.00
2022-10-26T03:37:50.417Z,0.00
2022-10-26T03:38:49.936Z,0.00
2022-10-26T03:40:10.892Z,0.00
2022-10-26T03:40:49.864Z,0.00
2022-10-26T03:42:10.837Z,0.00
2022-10-26T03:42:50.018Z,0.00
2022-10-26T03:43:49.765Z,0.00
2022-10-26T03:45:10.727Z,0.00
2022-10-26T03:45:49.698Z,0.00
2022-10-26T03:47:10.660Z,0.00
2022-10-26T03:47:49.635Z,0.00
2022-10-26T03:48:49.601Z,0.00
2022-10-26T03:50:10.568Z,0.00
2022-10-26T03:50:49.555Z,0.00
2022-10-26T03:52:10.497Z,0.00
2022-10-26T03:52:49.869Z,0.00
2022-10-26T03:53:49.434Z,0.00
2022-10-26T03:55:10.399Z,0.00
2022-10-26T03:55:49.360Z,0.00
2022-10-26T03:57:10.331Z,0.00
2022-10-26T03:57:49.298Z,0.00
2022-10-26T03:58:49.268Z,0.00
2022-10-26T04:00:10.254Z,0.00
2022-10-26T04:00:49.196Z,0.00
2022-10-26T04:02:10.156Z,0.00
2022-10-26T04:02:49.332Z,0.00
2022-10-26T04:03:49.127Z,0.00
2022-10-26T04:05:10.059Z,0.00
2022-10-26T04:05:49.035Z,0.00
2022-10-26T04:07:10.000Z,0.00
2022-10-26T04:07:49.150Z,0.00
2022-10-26T04:08:48.930Z,0.00
2022-10-26T04:10:09.892Z,0.00
2022-10-26T04:10:48.866Z,0.00
2022-10-26T04:12:09.839Z,0.00
2022-10-26T04:12:48.799Z,0.00
2022-10-26T04:13:48.758Z,0.00
2022-10-26T04:15:09.726Z,0.00
2022-10-26T04:15:48.691Z,0.00
2022-10-26T04:17:09.732Z,0.00
2022-10-26T04:17:48.968Z,0.00
2022-10-26T04:18:48.590Z,0.00
2022-10-26T04:20:09.845Z,0.00
2022-10-26T04:20:48.528Z,0.00
2022-10-26T04:22:09.492Z,0.00
2022-10-26T04:22:48.458Z,0.00
2022-10-26T04:23:48.461Z,0.00
2022-10-26T04:25:09.390Z,0.00
2022-10-26T04:25:48.362Z,0.00
2022-10-26T04:27:09.329Z,0.00
2022-10-26T04:27:48.571Z,0.00
2022-10-26T04:28:48.258Z,0.00
2022-10-26T04:30:09.226Z,0.00
2022-10-26T04:30:48.194Z,0.00
2022-10-26T04:32:09.158Z,0.00
2022-10-26T04:32:48.258Z,0.00
2022-10-26T04:33:48.095Z,0.00
2022-10-26T04:35:12.078Z,0.00
2022-10-26T04:35:48.023Z,0.00
2022-10-26T04:37:08.991Z,0.00
2022-10-26T04:37:47.958Z,0.00
2022-10-26T04:38:47.928Z,0.00
2022-10-26T04:40:08.907Z,0.00
2022-10-26T04:40:47.860Z,0.00
2022-10-26T04:42:08.824Z,0.00
2022-10-26T04:42:48.188Z,0.00
2022-10-26T04:43:47.776Z,0.00
2022-10-26T04:45:08.733Z,0.00
2022-10-26T04:45:47.693Z,0.00
2022-10-26T04:47:08.661Z,0.00
2022-10-26T04:47:47.626Z,0.00
2022-10-26T04:48:47.598Z,0.00
2022-10-26T04:50:08.558Z,0.00
2022-10-26T04:50:47.534Z,0.00
2022-10-26T04:52:08.515Z,0.00
2022-10-26T04:52:47.924Z,0.00
2022-10-26T04:53:47.441Z,0.00
2022-10-26T04:55:08.395Z,0.00
2022-10-26T04:55:47.365Z,0.00
2022-10-26T04:57:08.329Z,0.00
2022-10-26T04:57:47.639Z,0.00
2022-10-26T04:58:47.259Z,0.00
2022-10-26T05:00:08.231Z,0.00
2022-10-26T05:00:47.193Z,0.00
2022-10-26T05:02:08.262Z,0.00
2022-10-26T05:02:47.167Z,0.00
2022-10-26T05:03:47.106Z,0.00
2022-10-26T05:05:10.097Z,0.00
2022-10-26T05:05:47.030Z,0.00
2022-10-26T05:07:07.996Z,0.00
2022-10-26T05:07:47.274Z,0.00
2022-10-26T05:08:46.925Z,0.00
2022-10-26T05:10:07.914Z,0.00
2022-10-26T05:10:46.859Z,0.00
2022-10-26T05:12:07.825Z,0.00
2022-10-26T05:12:46.793Z,0.00
2022-10-26T05:13:46.756Z,0.00
2022-10-26T05:15:08.645Z,0.00
2022-10-26T05:15:46.691Z,0.00
2022-10-26T05:17:07.661Z,0.00
2022-10-26T05:17:46.907Z,0.00
2022-10-26T05:18:46.599Z,0.00
2022-10-26T05:20:07.557Z,0.00
2022-10-26T05:20:46.532Z,0.00
2022-10-26T05:22:07.521Z,0.00
2022-10-26T05:22:46.630Z,0.00
2022-10-26T05:23:46.427Z,0.00
2022-10-26T05:25:07.395Z,0.00
2022-10-26T05:25:46.364Z,0.00
2022-10-26T05:27:07.332Z,0.00
2022-10-26T05:27:46.425Z,0.00
2022-10-26T05:28:46.269Z,0.00
2022-10-26T05:30:46.200Z,0.00
2022-10-26T05:32:07.157Z,0.00
2022-10-26T05:32:46.230Z,0.00
2022-10-26T05:33:46.090Z,0.00
2022-10-26T05:35:07.070Z,0.00
2022-10-26T05:35:46.106Z,0.00
2022-10-26T05:37:07.050Z,0.00
2022-10-26T05:37:45.959Z,0.00
2022-10-26T05:38:45.935Z,0.00
2022-10-26T05:40:06.892Z,0.00
2022-10-26T05:40:45.984Z,0.00
2022-10-26T05:42:06.828Z,0.00
2022-10-26T05:42:45.880Z,0.00
2022-10-26T05:43:45.882Z,0.00
2022-10-26T05:45:06.745Z,0.00
2022-10-26T05:45:45.702Z,0.00
2022-10-26T05:47:06.659Z,0.00
2022-10-26T05:47:45.664Z,0.00
2022-10-26T05:48:45.597Z,0.00
2022-10-26T05:50:06.555Z,0.00
2022-10-26T05:50:45.529Z,0.00
2022-10-26T05:52:06.500Z,0.00
2022-10-26T05:52:45.463Z,0.00
2022-10-26T05:53:45.464Z,0.00
2022-10-26T05:55:45.366Z,0.00
2022-10-26T05:57:06.336Z,0.00
2022-10-26T05:57:45.303Z,0.00
2022-10-26T05:58:45.275Z,0.00
2022-10-26T06:00:06.234Z,0.00
2022-10-26T06:00:45.200Z,0.00
2022-10-26T06:02:06.289Z,0.00
2022-10-26T06:02:45.171Z,0.00
2022-10-26T06:03:45.100Z,0.00
2022-10-26T06:05:06.066Z,0.00
2022-10-26T06:05:45.063Z,0.00
2022-10-26T06:07:06.006Z,0.00
2022-10-26T06:07:44.970Z,0.00
2022-10-26T06:08:44.942Z,0.00
2022-10-26T06:10:05.906Z,0.00
2022-10-26T06:10:44.871Z,0.00
2022-10-26T06:12:05.836Z,0.00
2022-10-26T06:12:44.800Z,0.00
2022-10-26T06:13:44.806Z,0.00
2022-10-26T06:15:05.732Z,0.00
2022-10-26T06:15:44.706Z,0.00
2022-10-26T06:17:05.665Z,0.00
2022-10-26T06:17:44.637Z,0.00
2022-10-26T06:18:44.599Z,0.00
2022-10-26T06:20:05.600Z,0.00
2022-10-26T06:20:44.553Z,0.00
2022-10-26T06:22:05.501Z,0.00
2022-10-26T06:22:44.475Z,0.00
2022-10-26T06:23:44.429Z,0.00
2022-10-26T06:25:06.362Z,0.00
2022-10-26T06:25:44.372Z,0.00
2022-10-26T06:27:05.332Z,0.00
2022-10-26T06:27:44.303Z,0.00
2022-10-26T06:28:46.198Z,0.00
2022-10-26T06:30:05.224Z,0.00
2022-10-26T06:30:44.201Z,0.00
2022-10-26T06:32:05.167Z,0.00
2022-10-26T06:32:44.144Z,0.00
2022-10-26T06:33:44.103Z,0.00
2022-10-26T06:35:07.242Z,0.00
2022-10-26T06:35:44.036Z,0.00
2022-10-26T06:37:05.010Z,0.00
2022-10-26T06:37:43.974Z,0.00
2022-10-26T06:38:43.939Z,0.00
2022-10-26T06:40:04.930Z,0.00
2022-10-26T06:40:43.876Z,0.00
2022-10-26T06:42:04.909Z,0.00
2022-10-26T06:42:43.796Z,0.00
2022-10-26T06:43:43.773Z,0.00
2022-10-26T06:45:04.844Z,0.00
2022-10-26T06:45:43.762Z,0.00
2022-10-26T06:47:04.668Z,0.00
2022-10-26T06:47:43.638Z,0.00
2022-10-26T06:48:43.594Z,0.00
2022-10-26T06:50:04.571Z,0.00
2022-10-26T06:50:43.533Z,0.00
2022-10-26T06:52:04.571Z,0.00
2022-10-26T06:52:43.467Z,0.00
2022-10-26T06:53:43.439Z,0.00
2022-10-26T06:55:04.400Z,0.00
2022-10-26T06:55:43.378Z,0.00
2022-10-26T06:57:04.329Z,0.00
2022-10-26T06:57:43.295Z,0.00
2022-10-26T06:58:43.261Z,0.00
2022-10-26T07:00:04.231Z,0.00
2022-10-26T07:00:43.200Z,5.63
2022-10-26T07:02:06.416Z,5.63
2022-10-26T07:02:43.186Z,5.63
2022-10-26T07:03:43.100Z,5.63
2022-10-26T07:05:04.060Z,5.63
2022-10-26T07:05:43.122Z,5.63
2022-10-26T07:07:03.996Z,5.63
2022-10-26T07:07:43.834Z,5.63
2022-10-26T07:08:42.930Z,5.63
2022-10-26T07:10:03.889Z,5.63
2022-10-26T07:10:42.864Z,5.63
2022-10-26T07:12:03.840Z,5.63
2022-10-26T07:12:42.796Z,5.63
2022-10-26T07:13:42.764Z,5.63
2022-10-26T07:15:03.783Z,5.63
2022-10-26T07:15:42.697Z,5.63
2022-10-26T07:17:03.684Z,5.63
2022-10-26T07:17:42.800Z,5.63
2022-10-26T07:18:42.616Z,5.63
2022-10-26T07:20:03.561Z,5.63
2022-10-26T07:20:42.523Z,5.63
2022-10-26T07:22:03.497Z,5.63
2022-10-26T07:22:42.458Z,5.63
2022-10-26T07:23:42.419Z,11.25
2022-10-26T07:25:03.516Z,11.25
2022-10-26T07:25:42.390Z,11.25
2022-10-26T07:27:03.323Z,11.25
2022-10-26T07:27:42.296Z,11.25
2022-10-26T07:28:42.268Z,11.25
2022-10-26T07:30:03.226Z,11.25
2022-10-26T07:30:42.182Z,11.25
2022-10-26T07:32:03.176Z,11.25
2022-10-26T07:32:42.123Z,11.25
2022-10-26T07:33:42.096Z,11.25
2022-10-26T07:35:03.057Z,11.25
2022-10-26T07:35:42.025Z,11.25
2022-10-26T07:37:02.983Z,11.25
2022-10-26T07:37:41.975Z,11.25
2022-10-26T07:38:41.918Z,11.25
2022-10-26T07:40:06.637Z,11.25
2022-10-26T07:40:41.858Z,11.25
2022-10-26T07:42:02.823Z,11.25
2022-10-26T07:42:44.229Z,11.25
2022-10-26T07:43:41.811Z,11.25
2022-10-26T07:45:02.723Z,11.25
2022-10-26T07:45:41.692Z,11.25
2022-10-26T07:47:02.734Z,11.25
2022-10-26T07:47:41.624Z,16.88
2022-10-26T07:48:41.714Z,16.88
2022-10-26T07:50:02.573Z,16.88
2022-10-26T07:50:41.537Z,16.88
2022-10-26T07:52:02.486Z,16.88
2022-10-26T07:52:41.455Z,16.88
2022-10-26T07:53:41.435Z,16.88
2022-10-26T07:55:02.384Z,16.88
2022-10-26T07:55:41.358Z,16.88
2022-10-26T07:57:02.481Z,16.88
2022-10-26T07:57:41.295Z,16.88
2022-10-26T07:58:41.261Z,16.88
2022-10-26T08:00:02.223Z,16.88
2022-10-26T08:00:41.254Z,16.88
2022-10-26T08:02:02.203Z,16.88
2022-10-26T08:02:41.123Z,16.88
2022-10-26T08:03:41.089Z,16.88
2022-10-26T08:05:02.059Z,16.88
2022-10-26T08:05:41.022Z,16.88
2022-10-26T08:07:01.990Z,16.88
2022-10-26T08:07:40.999Z,16.88
2022-10-26T08:08:44.882Z,16.88
2022-10-26T08:10:01.880Z,16.88
2022-10-26T08:10:40.855Z,16.88
2022-10-26T08:12:01.821Z,16.88
2022-10-26T08:12:40.783Z,16.88
2022-10-26T08:13:40.814Z,16.88
2022-10-26T08:15:01.729Z,22.50
2022-10-26T08:15:40.703Z,22.50
2022-10-26T08:17:01.652Z,28.13
2022-10-26T08:17:40.627Z,28.13
2022-10-26T08:18:40.590Z,33.75
2022-10-26T08:20:02.507Z,33.75
2022-10-26T08:20:40.526Z,33.75
2022-10-26T08:22:01.520Z,28.13
2022-10-26T08:22:40.466Z,28.13
2022-10-26T08:23:40.424Z,22.50
2022-10-26T08:25:01.385Z,22.50
2022-10-26T08:25:40.356Z,22.50
2022-10-26T08:27:01.369Z,22.50
2022-10-26T08:27:40.303Z,22.50
2022-10-26T08:28:40.257Z,28.13
2022-10-26T08:30:01.232Z,22.50
2022-10-26T08:30:40.193Z,22.50
2022-10-26T08:32:01.275Z,22.50
2022-10-26T08:32:40.120Z,22.50
2022-10-26T08:33:44.773Z,22.50
2022-10-26T08:35:01.052Z,22.50
2022-10-26T08:35:40.028Z,22.50
2022-10-26T08:37:00.998Z,22.50
2022-10-26T08:37:39.953Z,28.13
2022-10-26T08:38:39.932Z,28.13
2022-10-26T08:40:03.228Z,28.13
2022-10-26T08:40:39.868Z,28.13
2022-10-26T08:42:00.829Z,28.13
2022-10-26T08:42:39.797Z,28.13
2022-10-26T08:43:39.753Z,28.13
2022-10-26T08:45:00.725Z,28.13
2022-10-26T08:45:39.695Z,33.75
2022-10-26T08:47:00.664Z,33.75
2022-10-26T08:47:39.629Z,33.75
2022-10-26T08:48:39.598Z,33.75
2022-10-26T08:50:00.566Z,33.75
2022-10-26T08:50:42.053Z,33.75
2022-10-26T08:52:00.497Z,33.75
2022-10-26T08:52:39.529Z,33.75
2022-10-26T08:53:39.442Z,33.75
2022-10-26T08:55:00.395Z,33.75
2022-10-26T08:55:39.408Z,33.75
2022-10-26T08:57:00.352Z,33.75
2022-10-26T08:57:39.299Z,28.13
2022-10-26T08:58:39.277Z,28.13
2022-10-26T09:00:00.232Z,28.13
2022-10-26T09:00:39.260Z,22.50
2022-10-26T09:02:00.194Z,22.50
2022-10-26T09:02:39.151Z,22.50
2022-10-26T09:03:39.112Z,22.50
2022-10-26T09:05:00.414Z,22.50
2022-10-26T09:05:39.047Z,22.50
2022-10-26T09:07:00.081Z,22.50
2022-10-26T09:07:38.982Z,22.50
2022-10-26T09:08:38.949Z,22.50
2022-10-26T09:09:59.929Z,22.50
2022-10-26T09:10:38.889Z,22.50
2022-10-26T09:11:59.845Z,22.50
2022-10-26T09:12:38.810Z,22.50
2022-10-26T09:13:38.780Z,22.50
2022-10-26T09:14:59.782Z,28.13
2022-10-26T09:15:38.734Z,28.13
2022-10-26T09:16:59.678Z,28.13
2022-10-26T09:17:38.650Z,28.13
2022-10-26T09:18:38.665Z,28.13
2022-10-26T09:19:59.589Z,28.13
2022-10-26T09:20:38.656Z,22.50
2022-10-26T09:21:59.527Z,22.50
2022-10-26T09:22:38.494Z,22.50
2022-10-26T09:23:38.460Z,28.13
2022-10-26T09:25:02.853Z,28.13
2022-10-26T09:25:38.400Z,28.13
2022-10-26T09:26:59.400Z,28.13
2022-10-26T09:27:38.343Z,28.13
2022-10-26T09:28:38.293Z,28.13
2022-10-26T09:29:59.261Z,28.13
2022-10-26T09:30:38.240Z,28.13
2022-10-26T09:31:59.214Z,28.13
2022-10-26T09:32:38.166Z,28.13
2022-10-26T09:33:38.143Z,28.13
2022-10-26T09:34:59.127Z,28.13
2022-10-26T09:35:38.067Z,28.13
2022-10-26T09:36:59.056Z,28.13
2022-10-26T09:37:38.010Z,28.13
2022-10-26T09:38:37.974Z,28.13
2022-10-26T09:39:58.948Z,28.13
2022-10-26T09:40:37.910Z,28.13
2022-10-26T09:41:58.880Z,28.13
2022-10-26T09:42:37.844Z,28.13
2022-10-26T09:43:37.838Z,28.13
2022-10-26T09:44:58.778Z,28.13
2022-10-26T09:45:37.754Z,33.75
2022-10-26T09:46:58.722Z,33.75
2022-10-26T09:47:37.684Z,33.75
2022-10-26T09:48:37.663Z,33.75
2022-10-26T09:49:58.624Z,33.75
2022-10-26T09:50:37.598Z,33.75
2022-10-26T09:51:58.606Z,33.75
2022-10-26T09:52:37.533Z,33.75
2022-10-26T09:53:37.498Z,39.38
2022-10-26T09:54:58.466Z,39.38
2022-10-26T09:55:37.428Z,39.38
2022-10-26T09:56:58.400Z,39.38
2022-10-26T09:57:37.375Z,45.00
2022-10-26T09:58:37.339Z,50.63
2022-10-26T09:59:58.331Z,50.63
2022-10-26T10:00:37.275Z,56.25
2022-10-26T10:01:58.279Z,56.25
2022-10-26T10:02:37.229Z,56.25
2022-10-26T10:03:37.182Z,61.88
2022-10-26T10:04:58.150Z,61.88
2022-10-26T10:05:50.643Z,61.88
2022-10-26T10:06:58.094Z,67.50
2022-10-26T10:07:40.048Z,67.50
2022-10-26T10:08:37.041Z,67.50
2022-10-26T10:09:57.997Z,73.13
2022-10-26T10:10:36.965Z,73.13
2022-10-26T10:11:57.977Z,73.13
2022-10-26T10:12:36.912Z,73.13
2022-10-26T10:13:36.874Z,78.75
2022-10-26T10:14:57.830Z,78.75
2022-10-26T10:15:36.821Z,78.75
2022-10-26T10:16:57.788Z,84.38
2022-10-26T10:17:36.831Z,84.38
2022-10-26T10:18:36.716Z,84.38
2022-10-26T10:19:57.685Z,84.38
2022-10-26T10:20:36.733Z,90.00
2022-10-26T10:21:57.622Z,90.00
2022-10-26T10:22:36.599Z,90.00
2022-10-26T10:23:36.563Z,95.63
2022-10-26T10:24:57.633Z,101.25
2022-10-26T10:25:36.510Z,101.25
2022-10-26T10:26:57.474Z,101.25
2022-10-26T10:27:36.441Z,106.88
2022-10-26T10:28:36.508Z,106.88
2022-10-26T10:29:59.997Z,112.50
2022-10-26T10:30:36.354Z,112.50
2022-10-26T10:31:57.323Z,118.13
2022-10-26T10:32:39.198Z,123.75
2022-10-26T10:33:36.320Z,129.38
2022-10-26T10:34:57.241Z,129.38
2022-10-26T10:35:36.214Z,135.00
2022-10-26T10:36:57.174Z,135.00
2022-10-26T10:37:36.148Z,135.00
2022-10-26T10:38:36.115Z,135.00
2022-10-26T10:39:57.094Z,140.63
2022-10-26T10:40:36.056Z,140.63
2022-10-26T10:41:57.056Z,146.25
2022-10-26T10:42:35.996Z,151.88
2022-10-26T10:43:35.965Z,163.13
2022-10-26T10:44:57.050Z,157.50
2022-10-26T10:45:35.906Z,151.88
2022-10-26T10:46:56.882Z,157.50
2022-10-26T10:47:35.861Z,163.13
2022-10-26T10:48:38.621Z,157.50
2022-10-26T10:49:56.793Z,174.38
2022-10-26T10:50:35.756Z,174.38
2022-10-26T10:51:56.727Z,180.00
2022-10-26T10:52:35.714Z,185.63
2022-10-26T10:53:36.343Z,191.25
2022-10-26T10:54:56.782Z,185.63
2022-10-26T10:55:35.616Z,196.88
2022-10-26T10:56:56.584Z,202.50
2022-10-26T10:57:35.553Z,202.50
2022-10-26T10:58:35.522Z,213.75
2022-10-26T10:59:56.523Z,196.88
2022-10-26T11:00:35.466Z,196.88
2022-10-26T11:01:56.539Z,208.13
2022-10-26T11:02:35.444Z,208.13
2022-10-26T11:03:35.380Z,196.88
2022-10-26T11:04:56.346Z,208.13
2022-10-26T11:05:35.501Z,213.75
2022-10-26T11:06:56.295Z,191.25
2022-10-26T11:07:35.268Z,196.88
2022-10-26T11:08:35.233Z,180.00
2022-10-26T11:09:56.201Z,168.75
2022-10-26T11:10:35.190Z,219.38
2022-10-26T11:11:56.142Z,213.75
2022-10-26T11:13:35.098Z,241.88
2022-10-26T11:14:56.061Z,213.75
2022-10-26T11:15:35.037Z,241.88
2022-10-26T11:16:56.000Z,247.50
2022-10-26T11:17:34.964Z,264.38
2022-10-26T11:18:34.942Z,270.00
2022-10-26T11:19:55.914Z,270.00
2022-10-26T11:20:34.887Z,275.63
2022-10-26T11:21:55.872Z,286.88
2022-10-26T11:22:34.840Z,286.88
2022-10-26T11:23:34.798Z,292.50
2022-10-26T11:24:55.767Z,303.75
2022-10-26T11:25:34.758Z,213.75
2022-10-26T11:26:55.730Z,163.13
2022-10-26T11:27:34.681Z,303.75
2022-10-26T11:28:34.662Z,303.75
2022-10-26T11:29:55.636Z,309.38
2022-10-26T11:30:34.618Z,303.75
2022-10-26T11:31:55.572Z,303.75
2022-10-26T11:32:34.554Z,303.75
2022-10-26T11:33:34.514Z,309.38
2022-10-26T11:34:55.493Z,315.00
2022-10-26T11:35:34.463Z,309.38
2022-10-26T11:36:55.426Z,309.38
2022-10-26T11:37:34.456Z,315.00
2022-10-26T11:38:46.186Z,309.38
2022-10-26T11:39:55.347Z,129.38
2022-10-26T11:40:34.317Z,326.25
2022-10-26T11:41:55.285Z,129.38
2022-10-26T11:42:34.260Z,315.00
2022-10-26T11:43:34.243Z,303.75
2022-10-26T11:44:55.246Z,298.13
2022-10-26T11:45:34.175Z,292.50
2022-10-26T11:46:55.179Z,303.75
2022-10-26T11:47:34.132Z,303.75
2022-10-26T11:48:34.099Z,258.75
2022-10-26T11:49:55.103Z,275.63
2022-10-26T11:50:34.026Z,275.63
2022-10-26T11:51:55.004Z,270.00
2022-10-26T11:52:33.993Z,275.63
2022-10-26T11:53:33.956Z,270.00
2022-10-26T11:54:54.920Z,275.63
2022-10-26T11:55:33.898Z,298.13
2022-10-26T11:56:54.862Z,315.00
2022-10-26T11:57:33.835Z,309.38
2022-10-26T11:58:33.814Z,292.50
2022-10-26T11:59:54.856Z,298.13
2022-10-26T12:00:33.763Z,270.00
2022-10-26T12:01:54.735Z,270.00
2022-10-26T12:02:33.807Z,286.88
2022-10-26T12:03:33.668Z,275.63
2022-10-26T12:04:54.643Z,264.38
2022-10-26T12:05:33.609Z,247.50
2022-10-26T12:06:54.608Z,270.00
2022-10-26T12:07:33.574Z,275.63
2022-10-26T12:08:33.620Z,270.00
2022-10-26T12:09:54.505Z,241.88
2022-10-26T12:10:33.476Z,241.88
2022-10-26T12:11:54.442Z,230.63
2022-10-26T12:12:36.392Z,191.25
2022-10-26T12:13:33.437Z,219.38
2022-10-26T12:14:54.366Z,84.38
2022-10-26T12:15:40.357Z,208.13
2022-10-26T12:16:54.321Z,247.50
2022-10-26T12:17:33.338Z,275.63
2022-10-26T12:18:53.989Z,90.00
2022-10-26T12:19:54.237Z,292.50
2022-10-26T12:20:33.203Z,241.88
2022-10-26T12:21:54.168Z,298.13
2022-10-26T12:22:33.138Z,286.88
2022-10-26T12:23:40.915Z,292.50
2022-10-26T12:24:54.099Z,286.88
2022-10-26T12:25:33.053Z,258.75
2022-10-26T12:26:54.025Z,258.75
2022-10-26T12:27:33.006Z,270.00
2022-10-26T12:28:32.970Z,281.25
2022-10-26T12:29:53.944Z,309.38
2022-10-26T12:30:32.920Z,309.38
2022-10-26T12:31:53.901Z,298.13
2022-10-26T12:32:32.860Z,292.50
2022-10-26T12:33:32.831Z,286.88
2022-10-26T12:34:53.804Z,281.25
2022-10-26T12:35:32.779Z,264.38
2022-10-26T12:36:53.786Z,247.50
2022-10-26T12:37:32.726Z,258.75
2022-10-26T12:38:33.829Z,286.88
2022-10-26T12:39:53.671Z,281.25
2022-10-26T12:40:32.668Z,286.88
2022-10-26T12:41:53.605Z,286.88
2022-10-26T12:42:32.591Z,258.75
2022-10-26T12:43:32.607Z,264.38
2022-10-26T12:44:53.535Z,236.25
2022-10-26T12:45:32.503Z,270.00
2022-10-26T12:46:53.483Z,303.75
2022-10-26T12:47:32.453Z,286.88
2022-10-26T12:48:39.301Z,264.38
2022-10-26T12:49:53.385Z,281.25
2022-10-26T12:50:32.357Z,286.88
2022-10-26T12:51:53.369Z,298.13
2022-10-26T12:52:32.308Z,303.75
2022-10-26T12:53:32.275Z,303.75
2022-10-26T12:54:53.246Z,326.25
2022-10-26T12:55:32.224Z,315.00
2022-10-26T12:56:53.199Z,286.88
2022-10-26T12:57:32.166Z,253.13
2022-10-26T12:58:32.142Z,219.38
2022-10-26T12:59:53.112Z,219.38
2022-10-26T13:00:32.165Z,213.75
2022-10-26T13:01:53.058Z,208.13
2022-10-26T13:02:32.046Z,219.38
2022-10-26T13:03:32.008Z,230.63
2022-10-26T13:04:52.972Z,219.38